createdAt,value
2023-04-29T00:00:37.057Z,30.88
2023-04-29T00:03:29.505Z,30.55
2023-04-29T00:06:21.881Z,33.15
2023-04-29T00:09:11.499Z,29.47
2023-04-29T00:12:01.206Z,29.05
2023-04-29T00:14:54.320Z,33.65
2023-04-29T00:20:33.022Z,31.80
2023-04-29T00:23:23.760Z,31.35
2023-04-29T00:26:13.186Z,31.70
2023-04-29T00:29:07.030Z,30.40
2023-04-29T00:31:56.487Z,31.92
2023-04-29T00:34:46.274Z,30.65
2023-04-29T00:37:36.370Z,32.80
2023-04-29T00:40:28.729Z,30.35
2023-04-29T00:43:18.023Z,31.25
2023-04-29T00:46:07.485Z,32.63
2023-04-29T00:48:57.032Z,28.77
2023-04-29T00:51:46.388Z,28.77
2023-04-29T00:54:36.422Z,30.55
2023-04-29T00:57:29.224Z,29.92
2023-04-29T01:00:19.514Z,28.85
2023-04-29T01:03:10.273Z,30.27
2023-04-29T01:06:10.485Z,27.10
2023-04-29T01:09:28.295Z,27.58
2023-04-29T01:12:27.660Z,23.33
2023-04-29T01:15:25.447Z,23.67
2023-04-29T01:18:25.809Z,21.55
2023-04-29T01:21:15.725Z,21.42
2023-04-29T01:24:06.516Z,24.67
2023-04-29T01:27:03.311Z,18.02
2023-04-29T01:30:12.631Z,18.67
2023-04-29T01:33:12.765Z,18.90
2023-04-29T01:36:17.933Z,21.25
2023-04-29T01:39:18.003Z,18.80
2023-04-29T01:42:24.008Z,18.45
2023-04-29T01:45:18.579Z,19.20
2023-04-29T01:48:08.814Z,18.95
2023-04-29T01:50:58.186Z,18.25
2023-04-29T01:53:47.506Z,17.67
2023-04-29T01:56:38.384Z,40.13
2023-04-29T01:59:39.160Z,27.08
2023-04-29T02:02:38.900Z,20.90
2023-04-29T02:05:38.385Z,24.08
2023-04-29T02:08:28.509Z,20.15
2023-04-29T02:11:19.189Z,20.15
2023-04-29T02:14:10.254Z,21.35
2023-04-29T02:16:59.644Z,20.58
2023-04-29T02:19:49.014Z,23.15
2023-04-29T02:22:38.401Z,18.67
2023-04-29T02:25:27.722Z,19.38
2023-04-29T02:28:18.016Z,16.85
2023-04-29T02:31:08.716Z,19.80
2023-04-29T02:33:58.846Z,20.17
2023-04-29T02:36:48.045Z,19.92
2023-04-29T02:39:37.297Z,20.45
2023-04-29T02:42:26.682Z,19.08
2023-04-29T02:45:16.201Z,22.10
2023-04-29T02:48:07.998Z,28.13
2023-04-29T02:50:57.315Z,30.92
2023-04-29T02:53:46.600Z,28.08
2023-04-29T02:56:35.876Z,36.90
2023-04-29T02:59:26.628Z,40.45
2023-04-29T03:02:16.412Z,38.60
2023-04-29T03:05:11.132Z,37.47
2023-04-29T03:08:00.537Z,37.92
2023-04-29T03:10:51.388Z,36.33
2023-04-29T03:13:41.576Z,45.28
2023-04-29T03:16:31.616Z,52.10
2023-04-29T03:19:20.890Z,49.42
2023-04-29T03:22:13.748Z,44.88
2023-04-29T03:25:05.999Z,31.25
2023-04-29T03:27:57.472Z,27.25
2023-04-29T03:30:47.305Z,23.98
2023-04-29T03:33:36.583Z,24.35
2023-04-29T03:36:26.239Z,21.80
2023-04-29T03:39:32.819Z,24.60
2023-04-29T03:42:22.306Z,25.15
2023-04-29T03:45:14.558Z,29.55
2023-04-29T03:48:03.894Z,28.50
2023-04-29T03:50:54.400Z,30.52
2023-04-29T03:53:47.299Z,38.33
2023-04-29T03:56:39.682Z,41.05
2023-04-29T03:59:29.201Z,36.67
2023-04-29T04:02:21.762Z,37.85
2023-04-29T04:05:12.311Z,44.17
2023-04-29T04:08:10.714Z,42.97
2023-04-29T04:11:15.365Z,40.10
2023-04-29T04:14:10.076Z,39.13
2023-04-29T04:16:59.437Z,37.67
2023-04-29T04:19:48.853Z,32.67
2023-04-29T04:22:39.394Z,30.20
2023-04-29T04:25:39.955Z,32.67
2023-04-29T04:29:01.553Z,30.42
2023-04-29T04:32:12.492Z,34.65
2023-04-29T04:35:02.378Z,33.08
2023-04-29T04:37:52.359Z,30.38
2023-04-29T04:40:43.493Z,31.38
2023-04-29T04:43:45.322Z,33.10
2023-04-29T04:46:44.664Z,33.45
2023-04-29T04:52:31.111Z,31.25
2023-04-29T04:55:39.182Z,31.90
2023-04-29T04:58:28.505Z,29.20
2023-04-29T05:01:17.985Z,36.00
2023-04-29T05:04:07.818Z,40.78
2023-04-29T05:06:58.622Z,44.72
2023-04-29T05:09:53.073Z,42.30
2023-04-29T05:12:43.771Z,40.58
2023-04-29T05:15:33.114Z,39.22
2023-04-29T05:18:23.592Z,43.25
2023-04-29T05:21:16.522Z,36.97
2023-04-29T05:24:09.064Z,35.33
2023-04-29T05:26:58.553Z,25.27
2023-04-29T05:29:47.929Z,20.70
2023-04-29T05:32:37.361Z,15.48
2023-04-29T05:35:28.872Z,13.88
2023-04-29T05:38:18.380Z,12.15
2023-04-29T05:41:18.976Z,16.50
2023-04-29T05:44:29.212Z,14.23
2023-04-29T05:47:18.548Z,16.20
2023-04-29T05:50:13.866Z,13.52
2023-04-29T05:53:03.216Z,11.77
2023-04-29T05:55:52.784Z,13.00
2023-04-29T05:58:45.329Z,13.48
2023-04-29T06:01:34.877Z,12.43
2023-04-29T06:04:26.577Z,15.00
2023-04-29T06:07:37.014Z,13.98
2023-04-29T06:10:34.506Z,14.35
2023-04-29T06:13:23.790Z,15.38
2023-04-29T06:16:15.338Z,15.73
2023-04-29T06:19:05.090Z,16.58
2023-04-29T06:21:54.751Z,16.42
2023-04-29T06:24:44.158Z,15.95
2023-04-29T06:27:36.710Z,16.33
2023-04-29T06:30:26.011Z,16.25
2023-04-29T06:33:16.774Z,17.95
2023-04-29T06:36:07.444Z,13.23
2023-04-29T06:39:15.832Z,24.20
2023-04-29T06:42:18.617Z,39.40
2023-04-29T06:45:28.356Z,50.20
2023-04-29T06:48:24.403Z,49.20
2023-04-29T06:51:13.936Z,46.33
2023-04-29T06:54:03.351Z,41.20
2023-04-29T06:56:52.817Z,34.40
2023-04-29T06:59:42.430Z,36.05
2023-04-29T07:02:32.333Z,28.00
2023-04-29T07:05:23.510Z,30.52
2023-04-29T07:08:14.247Z,22.92
2023-04-29T07:11:04.405Z,18.25
2023-04-29T07:13:54.986Z,18.30
2023-04-29T07:16:44.436Z,17.27
2023-04-29T07:19:34.246Z,21.05
2023-04-29T07:22:27.725Z,19.25
2023-04-29T07:25:17.264Z,18.77
2023-04-29T07:28:08.511Z,20.02
2023-04-29T07:30:57.942Z,17.85
2023-04-29T07:33:47.670Z,21.08
2023-04-29T07:36:38.082Z,19.23
2023-04-29T07:39:29.313Z,18.92
2023-04-29T07:42:20.068Z,17.20
2023-04-29T07:45:10.847Z,18.20
2023-04-29T07:48:00.422Z,16.70
2023-04-29T07:50:50.158Z,19.63
2023-04-29T07:53:39.905Z,17.52
2023-04-29T07:56:30.633Z,17.20
2023-04-29T07:59:20.035Z,16.65
2023-04-29T08:02:09.557Z,17.73
2023-04-29T08:04:59.486Z,18.63
2023-04-29T08:07:49.527Z,19.45
2023-04-29T08:10:43.276Z,18.30
2023-04-29T08:13:34.122Z,16.70
2023-04-29T08:16:26.265Z,17.23
2023-04-29T08:19:15.883Z,18.88
2023-04-29T08:22:05.863Z,18.45
2023-04-29T08:24:55.238Z,19.25
2023-04-29T08:27:46.549Z,15.98
2023-04-29T08:30:41.008Z,18.42
2023-04-29T08:33:30.393Z,16.45
2023-04-29T08:36:19.892Z,15.70
2023-04-29T08:39:09.522Z,21.38
2023-04-29T08:41:59.474Z,18.58
2023-04-29T08:44:49.184Z,16.13
2023-04-29T08:47:40.965Z,16.33
2023-04-29T08:50:31.131Z,18.15
2023-04-29T08:53:20.558Z,16.02
2023-04-29T08:56:17.602Z,16.02
2023-04-29T08:59:09.189Z,17.67
2023-04-29T09:02:00.123Z,19.80
2023-04-29T09:04:59.268Z,17.15
2023-04-29T09:07:48.953Z,17.05
2023-04-29T09:10:38.602Z,17.98
2023-04-29T09:13:30.478Z,16.02
2023-04-29T09:16:19.721Z,15.02
2023-04-29T09:19:09.217Z,16.33
2023-04-29T09:22:00.713Z,11.32
2023-04-29T09:24:49.975Z,14.20
2023-04-29T09:27:39.322Z,11.52
2023-04-29T09:30:30.162Z,12.32
2023-04-29T09:33:19.595Z,9.32
2023-04-29T09:36:09.801Z,9.02
2023-04-29T09:39:00.921Z,8.40
2023-04-29T09:42:03.155Z,9.32
2023-04-29T09:44:53.225Z,8.93
2023-04-29T09:47:43.041Z,8.38
2023-04-29T09:50:32.606Z,9.48
2023-04-29T09:53:31.742Z,10.68
2023-04-29T09:56:22.890Z,6.07
2023-04-29T09:59:12.102Z,10.30
2023-04-29T10:02:01.680Z,7.53
2023-04-29T10:04:57.817Z,8.77
2023-04-29T10:07:49.262Z,9.63
2023-04-29T10:10:38.557Z,6.25
2023-04-29T10:13:30.066Z,7.32
2023-04-29T10:16:30.634Z,6.32
2023-04-29T10:19:35.346Z,6.28
2023-04-29T10:22:32.864Z,13.32
2023-04-29T10:25:24.703Z,11.57
2023-04-29T10:28:17.622Z,9.75
2023-04-29T10:33:59.245Z,10.32
2023-04-29T10:36:50.170Z,11.73
2023-04-29T10:39:52.194Z,11.98
2023-04-29T10:42:47.137Z,10.05
2023-04-29T10:45:36.910Z,10.88
2023-04-29T10:48:28.296Z,10.13
2023-04-29T10:51:35.495Z,12.23
2023-04-29T10:54:26.140Z,13.38
2023-04-29T10:57:23.447Z,15.70
2023-04-29T11:00:24.502Z,11.52
2023-04-29T11:03:50.877Z,9.98
2023-04-29T11:06:44.295Z,9.82
2023-04-29T11:09:38.687Z,11.93
2023-04-29T11:12:28.160Z,10.77
2023-04-29T11:15:19.979Z,10.13
2023-04-29T11:18:13.109Z,11.85
2023-04-29T11:21:18.583Z,8.77
2023-04-29T11:24:08.578Z,12.77
2023-04-29T11:27:04.518Z,9.65
2023-04-29T11:29:58.685Z,10.77
2023-04-29T11:32:50.676Z,8.18
2023-04-29T11:35:41.652Z,9.63
2023-04-29T11:38:33.555Z,9.95
2023-04-29T11:41:23.301Z,7.13
2023-04-29T11:44:14.358Z,6.50
2023-04-29T11:47:04.579Z,6.28
2023-04-29T11:49:54.887Z,7.22
2023-04-29T11:52:44.761Z,7.75
2023-04-29T11:55:36.326Z,8.35
2023-04-29T11:58:26.317Z,8.95
2023-04-29T12:01:15.717Z,10.20
2023-04-29T12:04:07.478Z,9.68
2023-04-29T12:06:59.921Z,12.30
2023-04-29T12:09:49.233Z,13.40
2023-04-29T12:12:41.064Z,10.70
2023-04-29T12:15:30.881Z,15.95
2023-04-29T12:18:23.496Z,8.82
2023-04-29T12:21:12.842Z,9.25
2023-04-29T12:24:04.696Z,9.05
2023-04-29T12:26:55.058Z,8.75
2023-04-29T12:29:47.774Z,8.07
2023-04-29T12:32:37.892Z,7.22
2023-04-29T12:35:27.214Z,7.68
2023-04-29T12:38:21.998Z,11.43
2023-04-29T12:41:13.668Z,9.07
2023-04-29T12:44:04.270Z,8.38
2023-04-29T12:46:58.282Z,6.30
2023-04-29T12:49:50.385Z,8.25
2023-04-29T12:52:40.099Z,9.82
2023-04-29T12:55:29.860Z,10.80
2023-04-29T12:58:19.174Z,7.75
2023-04-29T13:01:08.450Z,7.45
2023-04-29T13:03:59.215Z,8.93
2023-04-29T13:06:48.621Z,7.88
2023-04-29T13:09:41.614Z,10.05
2023-04-29T13:12:30.986Z,9.63
2023-04-29T13:15:20.496Z,9.80
2023-04-29T13:18:09.714Z,9.50
2023-04-29T13:21:02.236Z,15.15
2023-04-29T13:23:52.179Z,10.07
2023-04-29T13:26:41.476Z,7.60
2023-04-29T13:29:31.334Z,9.43
2023-04-29T13:32:24.736Z,8.10
2023-04-29T13:35:14.128Z,9.10
2023-04-29T13:38:05.313Z,8.23
2023-04-29T13:40:55.167Z,9.15
2023-04-29T13:43:45.462Z,9.95
2023-04-29T13:46:34.976Z,8.38
2023-04-29T13:49:57.357Z,8.60
2023-04-29T13:56:15.441Z,11.18
2023-04-29T14:04:21.431Z,7.97
2023-04-29T14:07:10.939Z,6.53
2023-04-29T14:10:00.274Z,7.43
2023-04-29T14:12:50.975Z,9.38
2023-04-29T14:15:40.260Z,8.00
2023-04-29T14:18:30.664Z,7.78
2023-04-29T14:21:22.505Z,6.57
2023-04-29T14:24:11.907Z,6.80
2023-04-29T14:27:02.156Z,7.15
2023-04-29T14:29:52.836Z,7.70
2023-04-29T14:32:42.209Z,6.15
2023-04-29T14:35:31.874Z,8.27
2023-04-29T14:38:21.188Z,7.10
2023-04-29T14:41:10.552Z,8.45
2023-04-29T14:43:59.985Z,9.25
2023-04-29T14:46:50.677Z,9.18
2023-04-29T14:49:40.128Z,8.80
2023-04-29T14:52:29.406Z,8.02
2023-04-29T14:55:18.968Z,7.93
2023-04-29T14:58:10.034Z,7.55
2023-04-29T15:00:59.453Z,5.65
2023-04-29T15:03:50.158Z,7.35
2023-04-29T15:06:40.827Z,5.25
2023-04-29T15:09:30.711Z,5.53
2023-04-29T15:12:21.485Z,3.97
2023-04-29T15:15:12.038Z,9.07
2023-04-29T15:18:01.495Z,5.35
2023-04-29T15:20:52.176Z,5.47
2023-04-29T15:23:41.667Z,7.07
2023-04-29T15:26:30.979Z,6.07
2023-04-29T15:29:20.240Z,5.18
2023-04-29T15:32:10.669Z,6.22
2023-04-29T15:35:00.132Z,7.63
2023-04-29T15:37:50.948Z,7.60
2023-04-29T15:40:40.357Z,6.82
2023-04-29T15:43:29.807Z,6.60
2023-04-29T15:46:19.407Z,8.48
2023-04-29T15:49:08.597Z,8.85
2023-04-29T15:51:57.932Z,6.88
2023-04-29T15:54:48.709Z,6.78
2023-04-29T15:57:41.460Z,6.88
2023-04-29T16:03:20.449Z,7.18
2023-04-29T16:06:10.025Z,7.82
2023-04-29T16:09:06.608Z,7.28
2023-04-29T16:11:58.467Z,6.90
2023-04-29T16:14:47.734Z,6.80
2023-04-29T16:17:37.148Z,7.15
2023-04-29T16:20:27.094Z,7.45
2023-04-29T16:23:16.294Z,7.28
2023-04-29T16:26:06.093Z,10.35
2023-04-29T16:28:56.779Z,9.38
2023-04-29T16:31:46.295Z,12.23
2023-04-29T16:34:35.706Z,11.90
2023-04-29T16:37:25.150Z,14.15
2023-04-29T16:40:15.400Z,15.15
2023-04-29T16:43:04.792Z,14.48
2023-04-29T16:45:55.443Z,16.50
2023-04-29T16:48:44.870Z,29.40
2023-04-29T16:51:34.656Z,19.00
2023-04-29T16:54:25.344Z,18.15
2023-04-29T16:57:14.898Z,22.45
2023-04-29T17:00:04.350Z,18.33
2023-04-29T17:02:58.456Z,15.93
2023-04-29T17:05:48.854Z,19.00
2023-04-29T17:08:38.313Z,17.30
2023-04-29T17:11:27.780Z,19.75
2023-04-29T17:14:17.445Z,38.47
2023-04-29T17:17:07.184Z,50.80
2023-04-29T17:19:58.347Z,29.90
2023-04-29T17:22:48.013Z,24.98
2023-04-29T17:25:39.152Z,19.95
2023-04-29T17:28:29.370Z,14.57
2023-04-29T17:31:20.876Z,15.20
2023-04-29T17:34:18.459Z,10.57
2023-04-29T17:37:09.568Z,13.85
2023-04-29T17:39:58.765Z,13.43
2023-04-29T17:42:47.947Z,8.70
2023-04-29T17:45:41.879Z,10.70
2023-04-29T17:48:32.464Z,9.07
2023-04-29T17:51:21.741Z,10.05
2023-04-29T17:54:12.437Z,11.90
2023-04-29T17:57:03.412Z,11.00
2023-04-29T17:59:52.973Z,10.52
2023-04-29T18:02:42.738Z,12.50
2023-04-29T18:05:32.190Z,10.52
2023-04-29T18:08:21.484Z,10.73
2023-04-29T18:11:12.718Z,14.00
2023-04-29T18:14:02.045Z,11.40
2023-04-29T18:16:51.691Z,9.88
2023-04-29T18:19:41.144Z,12.68
2023-04-29T18:22:30.464Z,13.55
2023-04-29T18:25:19.725Z,14.82
2023-04-29T18:28:24.200Z,16.00
2023-04-29T18:31:14.449Z,21.75
2023-04-29T18:34:03.629Z,18.08
2023-04-29T18:36:53.090Z,19.83
2023-04-29T18:39:42.761Z,18.92
2023-04-29T18:42:32.015Z,18.63
2023-04-29T18:45:22.871Z,44.38
2023-04-29T18:48:13.061Z,24.40
2023-04-29T18:51:04.431Z,23.75
2023-04-29T18:53:53.797Z,25.42
2023-04-29T18:56:44.737Z,24.55
2023-04-29T18:59:36.009Z,26.98
2023-04-29T19:02:26.801Z,23.55
2023-04-29T19:05:16.575Z,22.98
2023-04-29T19:08:06.397Z,22.67
2023-04-29T19:10:56.252Z,24.73
2023-04-29T19:13:46.716Z,19.55
2023-04-29T19:16:37.252Z,18.42
2023-04-29T19:19:28.164Z,23.02
2023-04-29T19:22:17.588Z,19.98
2023-04-29T19:25:07.982Z,19.30
2023-04-29T19:27:57.333Z,21.58
2023-04-29T19:30:46.890Z,19.10
2023-04-29T19:33:36.490Z,22.35
2023-04-29T19:36:27.456Z,21.95
2023-04-29T19:39:16.920Z,20.13
2023-04-29T19:42:06.363Z,28.38
2023-04-29T19:44:56.333Z,27.45
2023-04-29T19:47:46.275Z,28.23
2023-04-29T19:50:35.567Z,25.30
2023-04-29T19:53:32.574Z,31.17
2023-04-29T19:56:21.895Z,29.48
2023-04-29T19:59:12.243Z,26.35
2023-04-29T20:02:01.829Z,26.30
2023-04-29T20:04:51.441Z,28.63
2023-04-29T20:07:41.435Z,33.83
2023-04-29T20:10:32.389Z,36.78
2023-04-29T20:13:21.764Z,32.53
2023-04-29T20:16:11.502Z,29.52
2023-04-29T20:19:00.873Z,27.77
2023-04-29T20:21:50.858Z,40.85
2023-04-29T20:24:40.093Z,46.13
2023-04-29T20:27:30.817Z,46.92
2023-04-29T20:30:20.101Z,43.65
2023-04-29T20:33:09.622Z,36.20
2023-04-29T20:36:05.474Z,42.75
2023-04-29T20:38:54.644Z,29.63
2023-04-29T20:41:43.976Z,25.08
2023-04-29T20:44:35.108Z,19.45
2023-04-29T20:47:24.367Z,12.05
2023-04-29T20:50:13.697Z,10.38
2023-04-29T20:53:03.410Z,8.95
2023-04-29T20:55:52.626Z,12.95
2023-04-29T20:58:41.902Z,10.82
2023-04-29T21:01:32.534Z,7.93
2023-04-29T21:04:22.295Z,7.38
2023-04-29T21:07:11.586Z,32.65
2023-04-29T21:10:00.960Z,23.55
2023-04-29T21:12:50.208Z,15.95
2023-04-29T21:15:39.583Z,18.63
2023-04-29T21:18:30.230Z,14.32
2023-04-29T21:21:19.445Z,14.43
2023-04-29T21:24:08.667Z,20.75
2023-04-29T21:26:57.884Z,16.00
2023-04-29T21:29:47.175Z,13.15
2023-04-29T21:32:36.527Z,8.23
2023-04-29T21:35:28.215Z,7.05
2023-04-29T21:38:17.498Z,10.15
2023-04-29T21:41:09.989Z,5.30
2023-04-29T21:44:01.678Z,17.10
2023-04-29T21:46:51.042Z,7.00
2023-04-29T21:49:40.449Z,10.63
2023-04-29T21:52:35.145Z,9.18
2023-04-29T21:55:24.651Z,10.82
2023-04-29T21:58:14.180Z,9.75
2023-04-29T22:01:15.848Z,9.93
2023-04-29T22:04:05.158Z,12.38
2023-04-29T22:06:54.472Z,13.68
2023-04-29T22:09:49.458Z,44.42
2023-04-29T22:12:38.822Z,30.17
2023-04-29T22:15:29.426Z,24.42
2023-04-29T22:18:18.815Z,26.90
2023-04-29T22:21:08.865Z,16.75
2023-04-29T22:23:58.108Z,17.55
2023-04-29T22:26:48.740Z,15.43
2023-04-29T22:29:38.023Z,16.67
2023-04-29T22:32:27.390Z,18.67
2023-04-29T22:35:17.176Z,15.20
2023-04-29T22:38:06.490Z,14.35
2023-04-29T22:40:56.667Z,12.98
2023-04-29T22:43:47.294Z,18.73
2023-04-29T22:46:36.727Z,15.68
2023-04-29T22:49:26.281Z,16.35
2023-04-29T22:52:15.567Z,20.65
2023-04-29T22:55:05.304Z,18.92
2023-04-29T22:57:54.581Z,15.15
2023-04-29T23:00:46.968Z,17.20
2023-04-29T23:03:36.650Z,19.42
2023-04-29T23:06:26.414Z,20.10
2023-04-29T23:09:15.811Z,18.83
2023-04-29T23:12:05.932Z,20.23
2023-04-29T23:14:55.657Z,21.88
2023-04-29T23:17:46.367Z,25.05
2023-04-29T23:20:35.694Z,21.23
2023-04-29T23:23:25.083Z,19.77
2023-04-29T23:26:14.723Z,24.58
2023-04-29T23:29:04.147Z,21.92
2023-04-29T23:31:53.435Z,28.27
2023-04-29T23:34:44.219Z,25.52
2023-04-29T23:37:33.533Z,22.80
2023-04-29T23:40:22.844Z,21.70
2023-04-29T23:43:12.260Z,19.90
2023-04-29T23:46:01.476Z,19.27
2023-04-29T23:48:50.956Z,19.63
2023-04-29T23:51:41.754Z,21.80
2023-04-29T23:54:30.965Z,17.33
2023-04-29T23:57:20.180Z,15.73
